Time,TemperatureF,DewpointF,PressureIn,WindDirection,WindDirectionDegrees,WindSpeedMPH,WindSpeedGustMPH,Humidity,HourlyPrecipIn,Conditions,Clouds,dailyrainin,SoftwareType,DateUTC
2013-11-06 00:01:00,36.6,33.1,30.49,ESE,115,0.0,0.0,87,0.00,,---,0.00,VWS V14.01,2013-11-06 05:01:00,
2013-11-06 00:03:00,36.6,33.1,30.49,ESE,115,0.0,0.0,87,0.00,,---,0.00,VWS V14.01,2013-11-06 05:03:00,
2013-11-06 00:04:00,36.6,33.1,30.49,ESE,115,0.0,0.0,87,0.00,,---,0.00,VWS V14.01,2013-11-06 05:04:00,
2013-11-06 00:09:00,36.6,33.1,30.49,ESE,115,0.0,0.0,87,0.00,,---,0.00,VWS V14.01,2013-11-06 05:09:00,
2013-11-06 00:14:00,36.7,33.2,30.49,ESE,115,0.0,0.0,87,0.00,,---,0.00,VWS V14.01,2013-11-06 05:14:00,
2013-11-06 00:19:00,36.7,33.2,30.49,ESE,115,0.0,0.0,87,0.00,,---,0.00,VWS V14.01,2013-11-06 05:19:00,
2013-11-06 00:25:00,36.6,33.1,30.49,ESE,115,0.0,0.0,87,0.00,,---,0.00,VWS V14.01,2013-11-06 05:25:00,
2013-11-06 00:30:00,36.6,33.1,30.49,ESE,115,0.0,0.0,87,0.00,,---,0.00,VWS V14.01,2013-11-06 05:30:00,
2013-11-06 00:35:00,36.5,33.0,30.49,ESE,115,0.0,1.0,87,0.00,,---,0.00,VWS V14.01,2013-11-06 05:35:00,
2013-11-06 00:40:00,36.3,32.8,30.49,ESE,115,0.0,0.0,87,0.00,,---,0.00,VWS V14.01,2013-11-06 05:40:00,
2013-11-06 00:45:00,36.2,32.7,30.49,ESE,115,0.0,0.0,87,0.00,,---,0.00,VWS V14.01,2013-11-06 05:45:00,
2013-11-06 00:50:00,36.1,32.6,30.49,ESE,115,0.0,0.0,87,0.00,,---,0.00,VWS V14.01,2013-11-06 05:50:00,
2013-11-06 00:55:00,35.9,32.4,30.48,ESE,115,0.0,0.0,87,0.00,,---,0.00,VWS V14.01,2013-11-06 05:55:00,
2013-11-06 01:00:00,35.7,32.5,30.48,ESE,115,0.0,0.0,88,0.00,,---,0.00,VWS V14.01,2013-11-06 06:00:00,
2013-11-06 01:05:00,35.6,32.4,30.48,ESE,115,0.0,0.0,88,0.00,,---,0.00,VWS V14.01,2013-11-06 06:05:00,
2013-11-06 01:10:00,35.5,32.3,30.48,ESE,115,0.0,0.0,88,0.00,,---,0.00,VWS V14.01,2013-11-06 06:10:00,
2013-11-06 01:15:00,35.5,32.6,30.48,ESE,115,0.0,0.0,89,0.00,,---,0.00,VWS V14.01,2013-11-06 06:15:00,
2013-11-06 01:20:00,35.6,32.7,30.48,ESE,115,0.0,0.0,89,0.00,,---,0.00,VWS V14.01,2013-11-06 06:20:00,
2013-11-06 01:25:00,35.7,32.8,30.48,ESE,115,0.0,0.0,89,0.00,,---,0.00,VWS V14.01,2013-11-06 06:25:00,
2013-11-06 01:31:00,35.7,33.1,30.47,ESE,115,0.0,0.0,90,0.00,,---,0.00,VWS V14.01,2013-11-06 06:31:00,
2013-11-06 01:36:00,35.9,33.3,30.47,ESE,115,0.0,0.0,90,0.00,,---,0.00,VWS V14.01,2013-11-06 06:36:00,
2013-11-06 01:41:00,36.0,33.4,30.46,ESE,115,0.0,0.0,90,0.00,,---,0.00,VWS V14.01,2013-11-06 06:41:00,
2013-11-06 01:46:00,36.1,33.5,30.46,ESE,115,0.0,1.0,90,0.00,,---,0.00,VWS V14.01,2013-11-06 06:46:00,
2013-11-06 01:51:00,36.2,33.6,30.46,ESE,115,0.0,0.0,90,0.00,,---,0.00,VWS V14.01,2013-11-06 06:51:00,
2013-11-06 01:56:00,36.3,33.7,30.46,ESE,115,0.0,0.0,90,0.00,,---,0.00,VWS V14.01,2013-11-06 06:56:00,
2013-11-06 02:01:00,36.4,33.8,30.46,ESE,115,0.0,0.0,90,0.00,,---,0.00,VWS V14.01,2013-11-06 07:01:00,
2013-11-06 02:06:00,36.5,33.8,30.47,ESE,115,0.0,0.0,90,0.00,,---,0.00,VWS V14.01,2013-11-06 07:06:00,
2013-11-06 02:11:00,36.6,34.0,30.47,ESE,115,0.0,0.0,90,0.00,,---,0.00,VWS V14.01,2013-11-06 07:11:00,
2013-11-06 02:16:00,36.6,34.2,30.47,ESE,115,0.0,0.0,91,0.00,,---,0.00,VWS V14.01,2013-11-06 07:16:00,
2013-11-06 02:21:00,36.6,34.2,30.47,ESE,115,0.0,0.0,91,0.00,,---,0.00,VWS V14.01,2013-11-06 07:21:00,
2013-11-06 02:26:00,36.7,34.3,30.47,ESE,115,0.0,1.0,91,0.00,,---,0.00,VWS V14.01,2013-11-06 07:26:00,
2013-11-06 02:31:00,36.7,34.3,30.46,ESE,115,0.0,0.0,91,0.00,,---,0.00,VWS V14.01,2013-11-06 07:31:00,
2013-11-06 02:36:00,36.8,34.4,30.46,ESE,115,0.0,0.0,91,0.00,,---,0.00,VWS V14.01,2013-11-06 07:36:00,
2013-11-06 02:41:00,36.9,34.5,30.45,ESE,115,0.0,0.0,91,0.00,,---,0.00,VWS V14.01,2013-11-06 07:41:00,
2013-11-06 02:46:00,37.0,34.6,30.44,ESE,115,0.0,1.0,91,0.00,,---,0.00,VWS V14.01,2013-11-06 07:46:00,
2013-11-06 02:52:00,37.2,34.8,30.45,ESE,115,0.0,0.0,91,0.00,,---,0.00,VWS V14.01,2013-11-06 07:52:00,
2013-11-06 02:57:00,37.3,34.6,30.44,ESE,115,0.0,0.0,90,0.00,,---,0.00,VWS V14.01,2013-11-06 07:57:00,
2013-11-06 03:02:00,37.4,34.7,30.44,ESE,115,0.0,0.0,90,0.00,,---,0.00,VWS V14.01,2013-11-06 08:02:00,
2013-11-06 03:07:00,37.5,34.8,30.44,ESE,115,0.0,0.0,90,0.00,,---,0.00,VWS V14.01,2013-11-06 08:07:00,
2013-11-06 03:12:00,37.6,34.9,30.44,ESE,115,0.0,0.0,90,0.00,,---,0.00,VWS V14.01,2013-11-06 08:12:00,
2013-11-06 03:17:00,37.6,34.9,30.44,ESE,115,0.0,0.0,90,0.00,,---,0.00,VWS V14.01,2013-11-06 08:17:00,
2013-11-06 03:22:00,37.5,34.8,30.44,ESE,115,0.0,0.0,90,0.00,,---,0.00,VWS V14.01,2013-11-06 08:22:00,
2013-11-06 03:27:00,37.4,34.5,30.44,ESE,115,0.0,0.0,89,0.00,,---,0.00,VWS V14.01,2013-11-06 08:27:00,
2013-11-06 03:32:00,37.3,34.4,30.44,ESE,115,0.0,0.0,89,0.00,,---,0.00,VWS V14.01,2013-11-06 08:32:00,
2013-11-06 03:37:00,37.2,34.3,30.44,ESE,115,0.0,0.0,89,0.00,,---,0.00,VWS V14.01,2013-11-06 08:37:00,
2013-11-06 03:42:00,37.2,34.5,30.44,ESE,115,0.0,1.0,90,0.00,,---,0.00,VWS V14.01,2013-11-06 08:42:00,
2013-11-06 03:47:00,37.2,34.5,30.44,ESE,115,0.0,0.0,90,0.00,,---,0.00,VWS V14.01,2013-11-06 08:47:00,
2013-11-06 03:52:00,37.3,34.4,30.44,ESE,115,0.0,0.0,89,0.00,,---,0.00,VWS V14.01,2013-11-06 08:52:00,
2013-11-06 03:57:00,37.2,34.3,30.44,ESE,115,0.0,0.0,89,0.00,,---,0.00,VWS V14.01,2013-11-06 08:57:00,
2013-11-06 04:02:00,37.2,34.3,30.44,ESE,115,0.0,0.0,89,0.00,,---,0.00,VWS V14.01,2013-11-06 09:02:00,
2013-11-06 04:07:00,37.1,34.4,30.44,ESE,115,0.0,0.0,90,0.00,,---,0.00,VWS V14.01,2013-11-06 09:07:00,
2013-11-06 04:12:00,37.0,34.3,30.44,ESE,115,0.0,0.0,90,0.00,,---,0.00,VWS V14.01,2013-11-06 09:12:00,
2013-11-06 04:18:00,36.9,34.2,30.44,ESE,115,0.0,0.0,90,0.00,,---,0.00,VWS V14.01,2013-11-06 09:18:00,
2013-11-06 04:23:00,36.9,34.2,30.44,ESE,115,0.0,0.0,90,0.00,,---,0.00,VWS V14.01,2013-11-06 09:23:00,
2013-11-06 04:28:00,36.8,34.2,30.44,ESE,115,0.0,0.0,90,0.00,,---,0.00,VWS V14.01,2013-11-06 09:28:00,
2013-11-06 04:33:00,36.7,34.0,30.43,ESE,115,0.0,0.0,90,0.00,,---,0.00,VWS V14.01,2013-11-06 09:33:00,
2013-11-06 04:38:00,36.6,34.0,30.44,ESE,115,0.0,0.0,90,0.00,,---,0.00,VWS V14.01,2013-11-06 09:38:00,
2013-11-06 04:43:00,36.6,34.0,30.43,ESE,115,0.0,0.0,90,0.00,,---,0.00,VWS V14.01,2013-11-06 09:43:00,
2013-11-06 04:48:00,36.6,34.2,30.43,ESE,115,0.0,1.0,91,0.00,,---,0.00,VWS V14.01,2013-11-06 09:48:00,
2013-11-06 04:53:00,36.6,34.2,30.43,ESE,115,0.0,0.0,91,0.00,,---,0.00,VWS V14.01,2013-11-06 09:53:00,
2013-11-06 04:58:00,36.6,34.2,30.43,ESE,115,0.0,1.0,91,0.00,,---,0.00,VWS V14.01,2013-11-06 09:58:00,
2013-11-06 05:03:00,36.6,34.5,30.43,ESE,115,0.0,0.0,92,0.00,,---,0.00,VWS V14.01,2013-11-06 10:03:00,
2013-11-06 05:08:00,36.7,34.6,30.42,ESE,115,0.0,0.0,92,0.00,,---,0.00,VWS V14.01,2013-11-06 10:08:00,
2013-11-06 05:13:00,36.7,34.6,30.42,ESE,115,0.0,1.0,92,0.00,,---,0.00,VWS V14.01,2013-11-06 10:13:00,
2013-11-06 05:18:00,36.8,34.7,30.42,ESE,115,0.0,1.0,92,0.00,,---,0.00,VWS V14.01,2013-11-06 10:18:00,
2013-11-06 05:23:00,36.8,34.7,30.42,ESE,115,0.0,0.0,92,0.00,,---,0.00,VWS V14.01,2013-11-06 10:23:00,
2013-11-06 05:28:00,36.9,34.8,30.42,ESE,115,0.0,0.0,92,0.00,,---,0.00,VWS V14.01,2013-11-06 10:28:00,
2013-11-06 05:33:00,36.9,34.8,30.42,ESE,115,0.0,0.0,92,0.00,,---,0.00,VWS V14.01,2013-11-06 10:33:00,
2013-11-06 05:38:00,37.0,34.9,30.43,ESE,115,0.0,0.0,92,0.00,,---,0.00,VWS V14.01,2013-11-06 10:38:00,
2013-11-06 05:43:00,37.0,34.9,30.43,ESE,115,0.0,0.0,92,0.00,,---,0.00,VWS V14.01,2013-11-06 10:43:00,
2013-11-06 05:48:00,37.0,34.9,30.43,ESE,115,0.0,0.0,92,0.00,,---,0.00,VWS V14.01,2013-11-06 10:48:00,
2013-11-06 05:53:00,37.1,35.0,30.43,ESE,115,0.0,0.0,92,0.00,,---,0.00,VWS V14.01,2013-11-06 10:53:00,
2013-11-06 05:58:00,37.1,35.0,30.42,ESE,115,0.0,0.0,92,0.00,,---,0.00,VWS V14.01,2013-11-06 10:58:00,
2013-11-06 06:03:00,37.1,35.0,30.42,ESE,115,0.0,0.0,92,0.00,,---,0.00,VWS V14.01,2013-11-06 11:03:00,
2013-11-06 06:08:00,37.0,34.9,30.42,ESE,115,0.0,1.0,92,0.00,,---,0.00,VWS V14.01,2013-11-06 11:08:00,
2013-11-06 06:13:00,37.0,34.9,30.42,ESE,115,0.0,0.0,92,0.00,,---,0.00,VWS V14.01,2013-11-06 11:13:00,
2013-11-06 06:18:00,37.0,34.9,30.42,ESE,115,0.0,1.0,92,0.00,,---,0.00,VWS V14.01,2013-11-06 11:18:00,
2013-11-06 06:23:00,37.0,34.9,30.42,ESE,115,0.0,0.0,92,0.00,,---,0.00,VWS V14.01,2013-11-06 11:23:00,
2013-11-06 06:28:00,37.0,34.9,30.42,ESE,115,0.0,0.0,92,0.00,,---,0.00,VWS V14.01,2013-11-06 11:28:00,
2013-11-06 06:34:00,37.0,34.9,30.42,ESE,115,0.0,0.0,92,0.00,,---,0.00,VWS V14.01,2013-11-06 11:34:00,
2013-11-06 06:39:00,37.1,35.3,30.42,ESE,115,0.0,0.0,93,0.00,,---,0.00,VWS V14.01,2013-11-06 11:39:00,
2013-11-06 06:44:00,37.2,35.4,30.41,ESE,115,0.0,0.0,93,0.00,,---,0.00,VWS V14.01,2013-11-06 11:44:00,
2013-11-06 06:49:00,37.3,35.5,30.41,ESE,115,0.0,1.0,93,0.00,,---,0.00,VWS V14.01,2013-11-06 11:49:00,
2013-11-06 06:54:00,37.5,35.7,30.41,SE,128,0.0,5.0,93,0.00,,---,0.00,VWS V14.01,2013-11-06 11:54:00,
2013-11-06 06:59:00,37.8,36.0,30.41,SE,132,0.0,2.0,93,0.00,,---,0.00,VWS V14.01,2013-11-06 11:59:00,
2013-11-06 07:04:00,38.2,36.4,30.41,SE,132,0.0,0.0,93,0.00,,---,0.00,VWS V14.01,2013-11-06 12:04:00,
2013-11-06 07:09:00,38.5,36.7,30.40,SE,132,0.0,0.0,93,0.00,,---,0.00,VWS V14.01,2013-11-06 12:09:00,
2013-11-06 07:14:00,38.9,36.8,30.40,SE,132,0.0,1.0,92,0.00,,---,0.00,VWS V14.01,2013-11-06 12:14:00,
2013-11-06 07:19:00,39.2,37.1,30.40,SE,132,0.0,0.0,92,0.00,,---,0.00,VWS V14.01,2013-11-06 12:19:00,
2013-11-06 07:24:00,39.5,37.4,30.40,SE,132,0.0,1.0,92,0.00,,---,0.00,VWS V14.01,2013-11-06 12:24:00,
2013-11-06 07:29:00,39.9,37.8,30.40,SE,132,0.0,1.0,92,0.00,,---,0.00,VWS V14.01,2013-11-06 12:29:00,
2013-11-06 07:34:00,40.2,37.8,30.40,SE,132,0.0,2.0,91,0.00,,---,0.00,VWS V14.01,2013-11-06 12:34:00,
2013-11-06 07:39:00,40.5,37.8,30.40,SE,132,2.0,2.0,90,0.00,,---,0.00,VWS V14.01,2013-11-06 12:39:00,
2013-11-06 07:44:00,40.9,38.2,30.40,SE,132,2.0,2.0,90,0.00,,---,0.00,VWS V14.01,2013-11-06 12:44:00,
2013-11-06 07:49:00,41.2,37.9,30.40,SE,132,0.0,1.0,88,0.00,,---,0.00,VWS V14.01,2013-11-06 12:49:00,
2013-11-06 07:54:00,41.5,38.2,30.39,SE,132,0.0,2.0,88,0.00,,---,0.00,VWS V14.01,2013-11-06 12:54:00,
2013-11-06 07:59:00,41.9,38.6,30.39,SE,138,0.0,1.0,88,0.00,,---,0.00,VWS V14.01,2013-11-06 12:59:00,
2013-11-06 08:04:00,42.4,38.8,30.39,SE,144,0.0,4.0,87,0.00,,---,0.00,VWS V14.01,2013-11-06 13:04:00,
2013-11-06 08:09:00,43.0,39.1,30.39,SSE,147,5.0,5.0,86,0.00,,---,0.00,VWS V14.01,2013-11-06 13:09:00,
2013-11-06 08:15:00,43.7,39.5,30.40,SSE,158,2.0,5.0,85,0.00,,---,0.00,VWS V14.01,2013-11-06 13:15:00,
2013-11-06 08:20:00,44.3,39.8,30.39,SSE,159,0.0,1.0,84,0.00,,---,0.00,VWS V14.01,2013-11-06 13:20:00,
2013-11-06 08:25:00,45.0,40.5,30.39,South,171,1.0,9.0,84,0.00,,---,0.00,VWS V14.01,2013-11-06 13:25:00,
2013-11-06 08:30:00,45.5,40.7,30.39,South,169,5.0,5.0,83,0.00,,---,0.00,VWS V14.01,2013-11-06 13:30:00,
2013-11-06 08:35:00,46.2,41.0,30.39,South,174,4.0,7.0,82,0.00,,---,0.00,VWS V14.01,2013-11-06 13:35:00,
2013-11-06 08:40:00,47.2,42.0,30.38,South,182,2.0,3.0,82,0.00,,---,0.00,VWS V14.01,2013-11-06 13:40:00,
2013-11-06 08:45:00,48.1,42.2,30.38,SW,217,6.0,6.0,80,0.00,,---,0.00,VWS V14.01,2013-11-06 13:45:00,
2013-11-06 08:50:00,49.0,42.5,30.37,South,186,0.0,7.0,78,0.00,,---,0.00,VWS V14.01,2013-11-06 13:50:00,
2013-11-06 08:55:00,49.4,42.5,30.37,SSW,205,3.0,7.0,77,0.00,,---,0.00,VWS V14.01,2013-11-06 13:55:00,
2013-11-06 09:00:00,49.6,42.7,30.36,SW,229,0.0,7.0,77,0.00,,---,0.00,VWS V14.01,2013-11-06 14:00:00,
2013-11-06 09:05:00,49.9,43.0,30.36,SW,232,0.0,5.0,77,0.00,,---,0.00,VWS V14.01,2013-11-06 14:05:00,
2013-11-06 09:10:00,50.2,43.3,30.36,WSW,252,7.0,8.0,77,0.00,,---,0.00,VWS V14.01,2013-11-06 14:10:00,
2013-11-06 09:15:00,50.3,43.0,30.36,SSW,207,5.0,8.0,76,0.00,,---,0.00,VWS V14.01,2013-11-06 14:15:00,
2013-11-06 09:20:00,50.5,42.9,30.36,SW,219,8.0,10.0,75,0.00,,---,0.00,VWS V14.01,2013-11-06 14:20:00,
2013-11-06 09:25:00,50.7,43.4,30.36,WSW,254,3.0,7.0,76,0.00,,---,0.00,VWS V14.01,2013-11-06 14:25:00,
2013-11-06 09:30:00,51.0,43.4,30.36,SSW,193,3.0,5.0,75,0.00,,---,0.00,VWS V14.01,2013-11-06 14:30:00,
2013-11-06 09:35:00,51.3,43.7,30.35,SE,136,0.0,11.0,75,0.00,,---,0.00,VWS V14.01,2013-11-06 14:35:00,
2013-11-06 09:40:00,51.5,43.5,30.35,WSW,246,3.0,7.0,74,0.00,,---,0.00,VWS V14.01,2013-11-06 14:40:00,
2013-11-06 09:45:00,51.7,43.7,30.35,West,260,3.0,10.0,74,0.00,,---,0.00,VWS V14.01,2013-11-06 14:45:00,
2013-11-06 09:50:00,51.9,43.9,30.35,SW,228,4.0,7.0,74,0.00,,---,0.00,VWS V14.01,2013-11-06 14:50:00,
2013-11-06 09:56:00,52.2,43.8,30.35,SSE,157,1.0,8.0,73,0.00,,---,0.00,VWS V14.01,2013-11-06 14:56:00,
2013-11-06 10:01:00,52.4,43.7,30.34,SSE,167,4.0,13.0,72,0.00,,---,0.00,VWS V14.01,2013-11-06 15:01:00,
2013-11-06 10:06:00,52.5,43.8,30.34,SE,139,4.0,9.0,72,0.00,,---,0.00,VWS V14.01,2013-11-06 15:06:00,
2013-11-06 10:11:00,52.6,43.5,30.34,SSW,198,4.0,6.0,71,0.00,,---,0.00,VWS V14.01,2013-11-06 15:11:00,
2013-11-06 10:16:00,52.7,43.9,30.33,SSW,202,4.0,7.0,72,0.00,,---,0.00,VWS V14.01,2013-11-06 15:16:00,
2013-11-06 10:21:00,52.8,43.7,30.33,SW,236,7.0,8.0,71,0.00,,---,0.00,VWS V14.01,2013-11-06 15:21:00,
2013-11-06 10:26:00,52.8,43.7,30.33,SW,216,5.0,11.0,71,0.00,,---,0.00,VWS V14.01,2013-11-06 15:26:00,
2013-11-06 10:31:00,53.0,44.2,30.33,SSW,194,1.0,6.0,72,0.00,,---,0.00,VWS V14.01,2013-11-06 15:31:00,
2013-11-06 10:36:00,53.3,44.2,30.33,SSW,194,0.0,8.0,71,0.00,,---,0.00,VWS V14.01,2013-11-06 15:36:00,
2013-11-06 10:41:00,53.5,44.0,30.33,West,259,2.0,10.0,70,0.00,,---,0.00,VWS V14.01,2013-11-06 15:41:00,
2013-11-06 10:46:00,53.7,44.5,30.33,WSW,249,1.0,6.0,71,0.00,,---,0.00,VWS V14.01,2013-11-06 15:46:00,
2013-11-06 10:51:00,54.1,44.5,30.33,WSW,253,5.0,9.0,70,0.00,,---,0.00,VWS V14.01,2013-11-06 15:51:00,
2013-11-06 10:56:00,54.7,44.7,30.32,West,277,4.0,7.0,69,0.00,,---,0.00,VWS V14.01,2013-11-06 15:56:00,
2013-11-06 11:01:00,55.0,44.7,30.32,SW,234,9.0,15.0,68,0.00,,---,0.00,VWS V14.01,2013-11-06 16:01:00,
2013-11-06 11:06:00,55.3,44.2,30.31,SSW,195,3.0,14.0,66,0.00,,---,0.00,VWS V14.01,2013-11-06 16:06:00,
2013-11-06 11:11:00,55.4,44.6,30.31,SW,229,9.0,9.0,67,0.00,,---,0.00,VWS V14.01,2013-11-06 16:11:00,
2013-11-06 11:16:00,55.7,44.9,30.30,SW,221,0.0,10.0,67,0.00,,---,0.00,VWS V14.01,2013-11-06 16:16:00,
2013-11-06 11:21:00,56.2,45.4,30.29,SW,236,3.0,7.0,67,0.00,,---,0.00,VWS V14.01,2013-11-06 16:21:00,
2013-11-06 11:26:00,56.6,45.0,30.29,SW,219,6.0,9.0,65,0.00,,---,0.00,VWS V14.01,2013-11-06 16:26:00,
2013-11-06 11:32:00,57.0,45.0,30.29,WSW,246,5.0,10.0,64,0.00,,---,0.00,VWS V14.01,2013-11-06 16:32:00,
2013-11-06 11:37:00,57.2,46.0,30.28,SW,224,1.0,12.0,66,0.00,,---,0.00,VWS V14.01,2013-11-06 16:37:00,
2013-11-06 11:42:00,57.7,45.2,30.28,SSW,198,2.0,9.0,63,0.00,,---,0.00,VWS V14.01,2013-11-06 16:42:00,
2013-11-06 11:47:00,58.0,45.5,30.28,South,178,5.0,8.0,63,0.00,,---,0.00,VWS V14.01,2013-11-06 16:47:00,
2013-11-06 11:52:00,58.4,45.5,30.28,West,260,7.0,8.0,62,0.00,,---,0.00,VWS V14.01,2013-11-06 16:52:00,
2013-11-06 11:57:00,58.9,45.5,30.27,South,184,3.0,8.0,61,0.00,,---,0.00,VWS V14.01,2013-11-06 16:57:00,
2013-11-06 12:02:00,59.0,45.6,30.26,SSW,192,5.0,6.0,61,0.00,,---,0.00,VWS V14.01,2013-11-06 17:02:00,
2013-11-06 12:07:00,59.0,45.6,30.26,South,176,5.0,14.0,61,0.00,,---,0.00,VWS V14.01,2013-11-06 17:07:00,
2013-11-06 12:12:00,59.0,45.6,30.25,SSE,159,1.0,9.0,61,0.00,,---,0.00,VWS V14.01,2013-11-06 17:12:00,
2013-11-06 12:17:00,59.3,45.4,30.25,SSW,211,5.0,9.0,60,0.00,,---,0.00,VWS V14.01,2013-11-06 17:17:00,
2013-11-06 12:22:00,60.0,45.2,30.25,South,189,5.0,12.0,58,0.00,,---,0.00,VWS V14.01,2013-11-06 17:22:00,
2013-11-06 12:27:00,60.3,45.5,30.25,SE,136,4.0,9.0,58,0.00,,---,0.00,VWS V14.01,2013-11-06 17:27:00,
2013-11-06 12:32:00,60.6,45.3,30.24,SW,223,6.0,14.0,57,0.00,,---,0.00,VWS V14.01,2013-11-06 17:32:00,
2013-11-06 12:37:00,60.5,45.2,30.23,SW,225,6.0,12.0,57,0.00,,---,0.00,VWS V14.01,2013-11-06 17:37:00,
2013-11-06 12:42:00,60.3,45.0,30.23,SW,223,8.0,9.0,57,0.00,,---,0.00,VWS V14.01,2013-11-06 17:42:00,
2013-11-06 12:47:00,60.4,45.1,30.23,SSE,162,4.0,9.0,57,0.00,,---,0.00,VWS V14.01,2013-11-06 17:47:00,
2013-11-06 12:52:00,60.8,46.4,30.23,West,269,4.0,9.0,59,0.00,,---,0.00,VWS V14.01,2013-11-06 17:52:00,
2013-11-06 12:57:00,61.2,45.4,30.23,West,261,3.0,13.0,56,0.00,,---,0.00,VWS V14.01,2013-11-06 17:57:00,
2013-11-06 13:03:00,61.2,44.4,30.22,SW,215,8.0,14.0,54,0.00,,---,0.00,VWS V14.01,2013-11-06 18:03:00,
2013-11-06 13:08:00,60.7,44.5,30.23,SW,217,3.0,14.0,55,0.00,,---,0.00,VWS V14.01,2013-11-06 18:08:00,
2013-11-06 13:13:00,60.4,44.2,30.23,SSW,202,6.0,17.0,55,0.00,,---,0.00,VWS V14.01,2013-11-06 18:13:00,
2013-11-06 13:18:00,60.2,44.9,30.22,South,191,1.0,6.0,57,0.00,,---,0.00,VWS V14.01,2013-11-06 18:18:00,
2013-11-06 13:23:00,60.9,44.6,30.22,WSW,242,7.0,13.0,55,0.00,,---,0.00,VWS V14.01,2013-11-06 18:23:00,
2013-11-06 13:28:00,61.4,45.1,30.21,WSW,248,10.0,17.0,55,0.00,,---,0.00,VWS V14.01,2013-11-06 18:28:00,
2013-11-06 13:33:00,61.2,44.0,30.21,WSW,241,0.0,11.0,53,0.00,,---,0.00,VWS V14.01,2013-11-06 18:33:00,
2013-11-06 13:38:00,61.6,43.8,30.20,WSW,246,4.0,10.0,52,0.00,,---,0.00,VWS V14.01,2013-11-06 18:38:00,
2013-11-06 13:43:00,61.5,43.2,30.20,WSW,253,7.0,14.0,51,0.00,,---,0.00,VWS V14.01,2013-11-06 18:43:00,
2013-11-06 13:48:00,61.3,44.0,30.20,SE,146,4.0,12.0,53,0.00,,---,0.00,VWS V14.01,2013-11-06 18:48:00,
2013-11-06 13:53:00,61.3,43.5,30.20,SW,223,5.0,13.0,52,0.00,,---,0.00,VWS V14.01,2013-11-06 18:53:00,
2013-11-06 13:58:00,61.3,43.5,30.19,WSW,252,8.0,10.0,52,0.00,,---,0.00,VWS V14.01,2013-11-06 18:58:00,
2013-11-06 14:03:00,61.1,42.8,30.19,WSW,252,8.0,15.0,51,0.00,,---,0.00,VWS V14.01,2013-11-06 19:03:00,
2013-11-06 14:08:00,60.6,42.9,30.19,WSW,238,2.0,16.0,52,0.00,,---,0.00,VWS V14.01,2013-11-06 19:08:00,
2013-11-06 14:13:00,60.6,43.4,30.19,South,184,3.0,13.0,53,0.00,,---,0.00,VWS V14.01,2013-11-06 19:13:00,
2013-11-06 14:18:00,60.6,43.4,30.19,West,280,10.0,12.0,53,0.00,,---,0.00,VWS V14.01,2013-11-06 19:18:00,
2013-11-06 14:23:00,60.6,43.4,30.19,West,275,8.0,13.0,53,0.00,,---,0.00,VWS V14.01,2013-11-06 19:23:00,
2013-11-06 14:28:00,60.5,43.3,30.19,West,265,10.0,14.0,53,0.00,,---,0.00,VWS V14.01,2013-11-06 19:28:00,
2013-11-06 14:33:00,60.4,43.7,30.18,West,265,5.0,11.0,54,0.00,,---,0.00,VWS V14.01,2013-11-06 19:33:00,
2013-11-06 14:38:00,60.4,43.7,30.18,NNW,340,1.0,6.0,54,0.00,,---,0.00,VWS V14.01,2013-11-06 19:38:00,
2013-11-06 14:43:00,60.5,43.3,30.18,WSW,251,7.0,8.0,53,0.00,,---,0.00,VWS V14.01,2013-11-06 19:43:00,
2013-11-06 14:48:00,60.2,43.0,30.18,SW,219,5.0,14.0,53,0.00,,---,0.00,VWS V14.01,2013-11-06 19:48:00,
2013-11-06 14:53:00,60.1,43.4,30.18,SE,134,4.0,5.0,54,0.00,,---,0.00,VWS V14.01,2013-11-06 19:53:00,
2013-11-06 14:58:00,60.1,43.4,30.18,SSW,198,5.0,9.0,54,0.00,,---,0.00,VWS V14.01,2013-11-06 19:58:00,
2013-11-06 15:03:00,60.0,43.3,30.18,SW,234,4.0,8.0,54,0.00,,---,0.00,VWS V14.01,2013-11-06 20:03:00,
2013-11-06 15:08:00,60.1,43.4,30.18,WSW,245,10.0,12.0,54,0.00,,---,0.00,VWS V14.01,2013-11-06 20:08:00,
2013-11-06 15:13:00,60.0,43.8,30.18,WSW,246,0.0,3.0,55,0.00,,---,0.00,VWS V14.01,2013-11-06 20:13:00,
2013-11-06 15:18:00,59.7,43.5,30.18,West,276,6.0,6.0,55,0.00,,---,0.00,VWS V14.01,2013-11-06 20:18:00,
2013-11-06 15:23:00,59.4,43.2,30.18,South,188,1.0,3.0,55,0.00,,---,0.00,VWS V14.01,2013-11-06 20:23:00,
2013-11-06 15:28:00,59.2,43.5,30.17,SSW,209,6.0,6.0,56,0.00,,---,0.00,VWS V14.01,2013-11-06 20:28:00,
2013-11-06 15:34:00,59.0,43.8,30.17,SSW,195,1.0,1.0,57,0.00,,---,0.00,VWS V14.01,2013-11-06 20:34:00,
2013-11-06 15:39:00,59.0,43.8,30.17,SSW,211,3.0,5.0,57,0.00,,---,0.00,VWS V14.01,2013-11-06 20:39:00,
2013-11-06 15:44:00,59.0,43.8,30.17,SW,234,2.0,2.0,57,0.00,,---,0.00,VWS V14.01,2013-11-06 20:44:00,
2013-11-06 15:49:00,58.8,43.6,30.17,WSW,247,0.0,2.0,57,0.00,,---,0.00,VWS V14.01,2013-11-06 20:49:00,
2013-11-06 15:54:00,58.5,43.8,30.17,SSW,209,4.0,6.0,58,0.00,,---,0.00,VWS V14.01,2013-11-06 20:54:00,
2013-11-06 15:59:00,58.1,43.4,30.17,SW,225,3.0,8.0,58,0.00,,---,0.00,VWS V14.01,2013-11-06 20:59:00,
2013-11-06 16:04:00,57.8,43.1,30.17,SW,224,4.0,6.0,58,0.00,,---,0.00,VWS V14.01,2013-11-06 21:04:00,
2013-11-06 16:09:00,57.6,43.4,30.17,SW,224,2.0,2.0,59,0.00,,---,0.00,VWS V14.01,2013-11-06 21:09:00,
2013-11-06 16:14:00,57.3,43.1,30.17,WSW,240,3.0,6.0,59,0.00,,---,0.00,VWS V14.01,2013-11-06 21:14:00,
2013-11-06 16:19:00,57.0,43.3,30.17,WSW,244,2.0,4.0,60,0.00,,---,0.00,VWS V14.01,2013-11-06 21:19:00,
2013-11-06 16:24:00,56.9,43.2,30.17,SW,222,2.0,3.0,60,0.00,,---,0.00,VWS V14.01,2013-11-06 21:24:00,
2013-11-06 16:29:00,56.7,43.0,30.17,SSW,198,3.0,3.0,60,0.00,,---,0.00,VWS V14.01,2013-11-06 21:29:00,
2013-11-06 16:34:00,56.5,43.2,30.17,South,181,3.0,9.0,61,0.00,,---,0.00,VWS V14.01,2013-11-06 21:34:00,
2013-11-06 16:39:00,56.4,43.1,30.17,SSW,205,5.0,7.0,61,0.00,,---,0.00,VWS V14.01,2013-11-06 21:39:00,
2013-11-06 16:44:00,56.5,43.2,30.16,SSW,193,1.0,4.0,61,0.00,,---,0.00,VWS V14.01,2013-11-06 21:44:00,
2013-11-06 16:49:00,56.5,43.2,30.17,SSW,209,1.0,6.0,61,0.00,,---,0.00,VWS V14.01,2013-11-06 21:49:00,
2013-11-06 16:55:00,56.4,43.6,30.16,South,191,2.0,2.0,62,0.00,,---,0.00,VWS V14.01,2013-11-06 21:55:00,
2013-11-06 17:00:00,56.3,43.5,30.16,SSW,205,3.0,7.0,62,0.00,,---,0.00,VWS V14.01,2013-11-06 22:00:00,
2013-11-06 17:05:00,56.3,43.5,30.16,SSW,196,0.0,5.0,62,0.00,,---,0.00,VWS V14.01,2013-11-06 22:05:00,
2013-11-06 17:10:00,56.1,43.3,30.16,SSW,205,2.0,5.0,62,0.00,,---,0.00,VWS V14.01,2013-11-06 22:10:00,
2013-11-06 17:15:00,55.9,43.5,30.16,West,273,0.0,1.0,63,0.00,,---,0.00,VWS V14.01,2013-11-06 22:15:00,
2013-11-06 17:20:00,55.8,43.4,30.16,SSW,192,0.0,2.0,63,0.00,,---,0.00,VWS V14.01,2013-11-06 22:20:00,
2013-11-06 17:25:00,55.7,43.3,30.16,South,170,1.0,9.0,63,0.00,,---,0.00,VWS V14.01,2013-11-06 22:25:00,
2013-11-06 17:30:00,55.5,43.5,30.16,SSE,158,0.0,4.0,64,0.00,,---,0.00,VWS V14.01,2013-11-06 22:30:00,
2013-11-06 17:35:00,55.2,43.7,30.16,South,171,4.0,6.0,65,0.00,,---,0.00,VWS V14.01,2013-11-06 22:35:00,
2013-11-06 17:40:00,55.0,43.5,30.16,South,172,1.0,6.0,65,0.00,,---,0.00,VWS V14.01,2013-11-06 22:40:00,
2013-11-06 17:45:00,54.8,43.3,30.15,South,184,1.0,6.0,65,0.00,,---,0.00,VWS V14.01,2013-11-06 22:45:00,
2013-11-06 17:50:00,54.8,43.7,30.15,ESE,115,1.0,6.0,66,0.00,,---,0.00,VWS V14.01,2013-11-06 22:50:00,
2013-11-06 17:55:00,54.8,43.7,30.15,SSW,192,0.0,5.0,66,0.00,,---,0.00,VWS V14.01,2013-11-06 22:55:00,
2013-11-06 18:00:00,54.9,43.8,30.15,SW,232,3.0,6.0,66,0.00,,---,0.00,VWS V14.01,2013-11-06 23:00:00,
2013-11-06 18:06:00,55.0,43.9,30.15,SSW,212,0.0,3.0,66,0.00,,---,0.00,VWS V14.01,2013-11-06 23:06:00,
2013-11-06 18:11:00,55.0,44.3,30.15,SW,224,1.0,7.0,67,0.00,,---,0.00,VWS V14.01,2013-11-06 23:11:00,
2013-11-06 18:16:00,54.9,44.2,30.15,SSE,157,4.0,6.0,67,0.00,,---,0.00,VWS V14.01,2013-11-06 23:16:00,
2013-11-06 18:21:00,54.8,44.5,30.14,South,187,1.0,7.0,68,0.00,,---,0.00,VWS V14.01,2013-11-06 23:21:00,
2013-11-06 18:26:00,54.8,44.5,30.14,SSW,192,5.0,8.0,68,0.00,,---,0.00,VWS V14.01,2013-11-06 23:26:00,
2013-11-06 18:31:00,54.6,44.7,30.14,SW,223,2.0,5.0,69,0.00,,---,0.00,VWS V14.01,2013-11-06 23:31:00,
2013-11-06 18:36:00,54.6,44.7,30.14,SW,219,2.0,9.0,69,0.00,,---,0.00,VWS V14.01,2013-11-06 23:36:00,
2013-11-06 18:41:00,54.5,44.9,30.14,SW,215,4.0,9.0,70,0.00,,---,0.00,VWS V14.01,2013-11-06 23:41:00,
2013-11-06 18:46:00,54.5,44.9,30.14,SSW,207,2.0,7.0,70,0.00,,---,0.00,VWS V14.01,2013-11-06 23:46:00,
2013-11-06 18:51:00,54.5,44.9,30.14,SSE,147,4.0,9.0,70,0.00,,---,0.00,VWS V14.01,2013-11-06 23:51:00,
2013-11-06 18:56:00,54.4,44.8,30.13,SW,218,2.0,6.0,70,0.00,,---,0.00,VWS V14.01,2013-11-06 23:56:00,
2013-11-06 19:01:00,54.2,45.0,30.13,SSW,204,1.0,6.0,71,0.00,,---,0.00,VWS V14.01,2013-11-07 00:01:00,
2013-11-06 19:06:00,54.1,44.9,30.13,South,177,0.0,6.0,71,0.00,,---,0.00,VWS V14.01,2013-11-07 00:06:00,
2013-11-06 19:11:00,54.0,45.2,30.12,SSE,167,0.0,5.0,72,0.00,,---,0.00,VWS V14.01,2013-11-07 00:11:00,
2013-11-06 19:17:00,53.9,45.1,30.12,SSE,165,2.0,6.0,72,0.00,,---,0.00,VWS V14.01,2013-11-07 00:17:00,
2013-11-06 19:22:00,53.8,45.0,30.12,SE,146,2.0,6.0,72,0.00,,---,0.00,VWS V14.01,2013-11-07 00:22:00,
2013-11-06 19:27:00,53.7,45.3,30.12,SW,220,0.0,3.0,73,0.00,,---,0.00,VWS V14.01,2013-11-07 00:27:00,
2013-11-06 19:32:00,53.7,45.3,30.12,SSW,201,3.0,4.0,73,0.00,,---,0.00,VWS V14.01,2013-11-07 00:32:00,
2013-11-06 19:37:00,53.6,45.5,30.12,SSW,202,0.0,7.0,74,0.00,,---,0.00,VWS V14.01,2013-11-07 00:37:00,
2013-11-06 19:42:00,53.6,45.5,30.11,SW,221,4.0,9.0,74,0.00,,---,0.00,VWS V14.01,2013-11-07 00:42:00,
2013-11-06 19:47:00,53.6,45.5,30.11,South,171,0.0,7.0,74,0.00,,---,0.00,VWS V14.01,2013-11-07 00:47:00,
2013-11-06 19:52:00,53.6,45.9,30.11,SSW,209,8.0,11.0,75,0.00,,---,0.00,VWS V14.01,2013-11-07 00:52:00,
2013-11-06 19:57:00,53.6,46.2,30.11,SSW,208,2.0,11.0,76,0.00,,---,0.00,VWS V14.01,2013-11-07 00:57:00,
2013-11-06 20:02:00,53.6,46.2,30.10,South,188,7.0,7.0,76,0.00,,---,0.00,VWS V14.01,2013-11-07 01:02:00,
2013-11-06 20:07:00,53.7,46.7,30.10,SSE,150,2.0,6.0,77,0.00,,---,0.00,VWS V14.01,2013-11-07 01:07:00,
2013-11-06 20:12:00,53.6,46.6,30.10,South,172,4.0,6.0,77,0.00,,---,0.00,VWS V14.01,2013-11-07 01:12:00,
2013-11-06 20:17:00,53.6,46.9,30.10,SE,146,1.0,7.0,78,0.00,,---,0.00,VWS V14.01,2013-11-07 01:17:00,
2013-11-06 20:22:00,53.6,46.9,30.10,South,176,2.0,9.0,78,0.00,,---,0.00,VWS V14.01,2013-11-07 01:22:00,
2013-11-06 20:28:00,53.6,47.3,30.10,SSE,150,4.0,8.0,79,0.00,,---,0.00,VWS V14.01,2013-11-07 01:28:00,
2013-11-06 20:33:00,53.6,47.6,30.10,South,187,7.0,9.0,80,0.00,,---,0.00,VWS V14.01,2013-11-07 01:33:00,
2013-11-06 20:38:00,53.6,47.6,30.09,SW,220,2.0,9.0,80,0.00,,---,0.00,VWS V14.01,2013-11-07 01:38:00,
2013-11-06 20:43:00,53.6,47.9,30.09,South,175,5.0,7.0,81,0.00,,---,0.00,VWS V14.01,2013-11-07 01:43:00,
2013-11-06 20:48:00,53.5,47.8,30.08,South,178,1.0,8.0,81,0.00,,---,0.00,VWS V14.01,2013-11-07 01:48:00,
2013-11-06 20:53:00,53.5,47.8,30.08,SSE,158,0.0,5.0,81,0.00,,---,0.00,VWS V14.01,2013-11-07 01:53:00,
2013-11-06 20:58:00,53.4,48.0,30.08,South,175,4.0,7.0,82,0.00,,---,0.00,VWS V14.01,2013-11-07 01:58:00,
2013-11-06 21:03:00,53.4,48.0,30.08,SW,215,3.0,7.0,82,0.00,,---,0.00,VWS V14.01,2013-11-07 02:03:00,
2013-11-06 21:08:00,53.4,48.0,30.08,SSE,165,0.0,6.0,82,0.00,,---,0.00,VWS V14.01,2013-11-07 02:08:00,
2013-11-06 21:13:00,53.4,48.4,30.07,South,184,1.0,13.0,83,0.00,,---,0.00,VWS V14.01,2013-11-07 02:13:00,
2013-11-06 21:18:00,53.4,48.4,30.07,South,178,6.0,12.0,83,0.00,,---,0.00,VWS V14.01,2013-11-07 02:18:00,
2013-11-06 21:23:00,53.5,48.5,30.07,SSE,150,8.0,10.0,83,0.00,,---,0.00,VWS V14.01,2013-11-07 02:23:00,
2013-11-06 21:28:00,53.6,48.6,30.07,South,182,0.0,8.0,83,0.00,,---,0.00,VWS V14.01,2013-11-07 02:28:00,
2013-11-06 21:33:00,53.6,48.6,30.06,WSW,250,2.0,9.0,83,0.00,,---,0.00,VWS V14.01,2013-11-07 02:33:00,
2013-11-06 21:38:00,53.6,48.6,30.06,South,178,7.0,7.0,83,0.00,,---,0.00,VWS V14.01,2013-11-07 02:38:00,
2013-11-06 21:43:00,53.5,48.5,30.06,SE,132,4.0,4.0,83,0.00,,---,0.00,VWS V14.01,2013-11-07 02:43:00,
2013-11-06 21:49:00,53.5,48.8,30.06,NW,324,0.0,0.0,84,0.00,,---,0.00,VWS V14.01,2013-11-07 02:49:00,
2013-11-06 21:54:00,53.5,48.8,30.05,WSW,245,3.0,3.0,84,0.00,,---,0.00,VWS V14.01,2013-11-07 02:54:00,
2013-11-06 21:59:00,53.5,49.1,30.05,SSW,198,2.0,2.0,85,0.00,,---,0.00,VWS V14.01,2013-11-07 02:59:00,
2013-11-06 22:04:00,53.5,49.1,30.05,WSW,238,4.0,5.0,85,0.00,,---,0.00,VWS V14.01,2013-11-07 03:04:00,
2013-11-06 22:09:00,53.5,49.1,30.05,South,169,1.0,8.0,85,0.00,,---,0.00,VWS V14.01,2013-11-07 03:09:00,
2013-11-06 22:14:00,53.5,49.1,30.05,SSE,162,1.0,3.0,85,0.00,,---,0.00,VWS V14.01,2013-11-07 03:14:00,
2013-11-06 22:19:00,53.5,49.1,30.04,South,175,2.0,9.0,85,0.00,,---,0.00,VWS V14.01,2013-11-07 03:19:00,
2013-11-06 22:24:00,53.4,49.3,30.05,WSW,237,8.0,9.0,86,0.00,,---,0.00,VWS V14.01,2013-11-07 03:24:00,
2013-11-06 22:29:00,53.3,49.2,30.04,South,175,2.0,7.0,86,0.00,,---,0.00,VWS V14.01,2013-11-07 03:29:00,
2013-11-06 22:34:00,53.3,49.2,30.04,SSE,165,5.0,13.0,86,0.00,,---,0.00,VWS V14.01,2013-11-07 03:34:00,
2013-11-06 22:39:00,53.3,49.5,30.04,SSW,193,1.0,3.0,87,0.00,,---,0.00,VWS V14.01,2013-11-07 03:39:00,
2013-11-06 22:44:00,53.2,49.4,30.04,South,182,0.0,0.0,87,0.00,,---,0.00,VWS V14.01,2013-11-07 03:44:00,
2013-11-06 22:49:00,53.1,49.3,30.03,WSW,250,0.0,4.0,87,0.00,,---,0.00,VWS V14.01,2013-11-07 03:49:00,
2013-11-06 22:55:00,53.1,49.3,30.02,SE,146,6.0,10.0,87,0.00,,---,0.00,VWS V14.01,2013-11-07 03:55:00,
2013-11-06 23:00:00,53.1,49.3,30.02,West,259,2.0,2.0,87,0.00,,---,0.00,VWS V14.01,2013-11-07 04:00:00,
2013-11-06 23:05:00,53.0,49.2,30.02,SW,229,0.0,11.0,87,0.00,,---,0.00,VWS V14.01,2013-11-07 04:05:00,
2013-11-06 23:10:00,52.9,49.1,30.02,South,187,1.0,6.0,87,0.00,,---,0.00,VWS V14.01,2013-11-07 04:10:00,
2013-11-06 23:15:00,53.0,49.5,30.02,SSW,213,0.0,9.0,88,0.00,,---,0.00,VWS V14.01,2013-11-07 04:15:00,
2013-11-06 23:20:00,53.0,49.5,30.02,SSW,209,7.0,12.0,88,0.00,,---,0.00,VWS V14.01,2013-11-07 04:20:00,
2013-11-06 23:25:00,53.0,49.5,30.01,SW,229,1.0,7.0,88,0.00,,---,0.00,VWS V14.01,2013-11-07 04:25:00,
2013-11-06 23:30:00,52.9,49.5,30.01,SSW,205,3.0,5.0,88,0.00,,---,0.00,VWS V14.01,2013-11-07 04:30:00,
2013-11-06 23:35:00,52.9,49.5,30.01,SW,233,3.0,4.0,88,0.00,,---,0.00,VWS V14.01,2013-11-07 04:35:00,
2013-11-06 23:40:00,52.9,49.1,30.01,South,174,4.0,7.0,87,0.00,,---,0.00,VWS V14.01,2013-11-07 04:40:00,
2013-11-06 23:45:00,52.9,49.1,30.01,SSW,207,0.0,8.0,87,0.00,,---,0.00,VWS V14.01,2013-11-07 04:45:00,
2013-11-06 23:50:00,52.8,49.0,30.01,SSW,198,1.0,7.0,87,0.00,,---,0.00,VWS V14.01,2013-11-07 04:50:00,
2013-11-06 23:56:00,52.7,49.0,30.01,SSW,210,2.0,5.0,87,0.00,,---,0.00,VWS V14.01,2013-11-07 04:56:00,